LPPR/OPO METAR and TAF weather

Enter ICAO airport designator
Station Type Date Time Source
LPPR METAR 2018/12/13 20:30 UTC NOAA

LPPR 132030Z 08003KT 350V130 9999 FEW030 BKN048 09/07 Q1021


Station Type Date Time Source
LPPR Decoded METAR 2018/12/13 20:30 UTC NOAA

Porto / Pedras Rubras, Portugal (LPPR) 41-14N 008-41W 77M
Dec 13, 2018 - 03:30 PM EST / 2018.12.13 2030 UTC
Wind: from the E (080 degrees) at 3 MPH (3 KT) (direction variable):0
Visibility: greater than 7 mile(s):0
Sky conditions: mostly cloudy
Temperature: 48 F (9 C)
Dew Point: 44 F (7 C)
Relative Humidity: 87%
Pressure (altimeter): 30.15 in. Hg (1021 hPa)
ob: LPPR 132030Z 08003KT 350V130 9999 FEW030 BKN048 09/07 Q1021
cycle: 20

Station Type Date Time Source
LPPR TAF 2018/12/13 18:18 UTC NOAA

TAF LPPR 131700Z 1318/1418 35008KT 9999 FEW018 SCT030 PROB30
TEMPO 1318/1321 8000 SHRA BKN015 FEW020TCU
BECMG 1400/1402 VRB03KT
BECMG 1407/1409 16008KT FEW015 BKN035


Example: see airport list